sensor_id;sensor_type;location;lat;lon;timestamp;temperature;humidity
32293;DHT22;43233;48.608;8.838;2022-12-04T00:01:43;1.10;81.20
32293;DHT22;43233;48.608;8.838;2022-12-04T00:04:09;1.10;80.90
32293;DHT22;43233;48.608;8.838;2022-12-04T00:06:35;1.10;80.90
32293;DHT22;43233;48.608;8.838;2022-12-04T00:09:01;1.10;81.00
32293;DHT22;43233;48.608;8.838;2022-12-04T00:11:29;1.10;81.20
32293;DHT22;43233;48.608;8.838;2022-12-04T00:13:55;1.10;81.00
32293;DHT22;43233;48.608;8.838;2022-12-04T00:16:23;1.10;80.70
32293;DHT22;43233;48.608;8.838;2022-12-04T00:18:49;1.10;81.50
32293;DHT22;43233;48.608;8.838;2022-12-04T00:21:16;1.10;80.50
32293;DHT22;43233;48.608;8.838;2022-12-04T00:23:42;1.10;80.40
32293;DHT22;43233;48.608;8.838;2022-12-04T00:26:11;1.20;80.40
32293;DHT22;43233;48.608;8.838;2022-12-04T00:28:37;1.20;80.40
32293;DHT22;43233;48.608;8.838;2022-12-04T00:31:08;1.10;80.40
32293;DHT22;43233;48.608;8.838;2022-12-04T00:33:34;1.20;80.60
32293;DHT22;43233;48.608;8.838;2022-12-04T00:36:02;1.20;80.50
32293;DHT22;43233;48.608;8.838;2022-12-04T00:38:28;1.20;80.40
32293;DHT22;43233;48.608;8.838;2022-12-04T00:40:54;1.20;80.20
32293;DHT22;43233;48.608;8.838;2022-12-04T00:43:21;1.10;80.30
32293;DHT22;43233;48.608;8.838;2022-12-04T00:45:47;1.20;80.40
32293;DHT22;43233;48.608;8.838;2022-12-04T00:48:12;1.20;80.40
32293;DHT22;43233;48.608;8.838;2022-12-04T00:50:38;1.20;80.20
32293;DHT22;43233;48.608;8.838;2022-12-04T00:53:04;1.20;80.10
32293;DHT22;43233;48.608;8.838;2022-12-04T00:55:30;1.20;80.10
32293;DHT22;43233;48.608;8.838;2022-12-04T00:57:55;1.20;80.10
32293;DHT22;43233;48.608;8.838;2022-12-04T01:00:21;1.20;80.10
32293;DHT22;43233;48.608;8.838;2022-12-04T01:02:47;1.20;80.10
32293;DHT22;43233;48.608;8.838;2022-12-04T01:05:12;1.10;80.10
32293;DHT22;43233;48.608;8.838;2022-12-04T01:07:38;1.10;80.10
32293;DHT22;43233;48.608;8.838;2022-12-04T01:10:06;1.20;80.20
32293;DHT22;43233;48.608;8.838;2022-12-04T01:12:32;1.20;80.10
32293;DHT22;43233;48.608;8.838;2022-12-04T01:14:59;1.20;79.90
32293;DHT22;43233;48.608;8.838;2022-12-04T01:17:24;1.10;79.90
32293;DHT22;43233;48.608;8.838;2022-12-04T01:19:50;1.10;79.80
32293;DHT22;43233;48.608;8.838;2022-12-04T01:22:16;1.20;79.80
32293;DHT22;43233;48.608;8.838;2022-12-04T01:24:41;1.20;79.90
32293;DHT22;43233;48.608;8.838;2022-12-04T01:27:07;1.20;79.70
32293;DHT22;43233;48.608;8.838;2022-12-04T01:29:33;1.20;79.90
32293;DHT22;43233;48.608;8.838;2022-12-04T01:31:59;1.20;80.00
32293;DHT22;43233;48.608;8.838;2022-12-04T01:34:24;1.20;79.90
32293;DHT22;43233;48.608;8.838;2022-12-04T01:36:51;1.20;79.80
32293;DHT22;43233;48.608;8.838;2022-12-04T01:39:17;1.20;80.00
32293;DHT22;43233;48.608;8.838;2022-12-04T01:41:42;1.20;80.10
32293;DHT22;43233;48.608;8.838;2022-12-04T01:44:20;1.20;80.10
32293;DHT22;43233;48.608;8.838;2022-12-04T01:46:59;1.20;80.10
32293;DHT22;43233;48.608;8.838;2022-12-04T01:49:42;1.30;80.00
32293;DHT22;43233;48.608;8.838;2022-12-04T01:52:13;1.30;80.00
32293;DHT22;43233;48.608;8.838;2022-12-04T01:54:42;1.20;80.00
32293;DHT22;43233;48.608;8.838;2022-12-04T01:57:15;1.20;80.20
32293;DHT22;43233;48.608;8.838;2022-12-04T01:59:44;1.20;80.40
32293;DHT22;43233;48.608;8.838;2022-12-04T02:02:13;1.20;80.60
32293;DHT22;43233;48.608;8.838;2022-12-04T02:04:41;1.20;80.70
32293;DHT22;43233;48.608;8.838;2022-12-04T02:07:08;1.20;80.90
32293;DHT22;43233;48.608;8.838;2022-12-04T02:09:34;1.20;81.00
32293;DHT22;43233;48.608;8.838;2022-12-04T02:14:48;1.20;81.20
32293;DHT22;43233;48.608;8.838;2022-12-04T02:17:21;1.20;81.30
32293;DHT22;43233;48.608;8.838;2022-12-04T02:20:05;1.20;81.30
32293;DHT22;43233;48.608;8.838;2022-12-04T02:25:53;1.20;81.40
32293;DHT22;43233;48.608;8.838;2022-12-04T02:35:03;1.20;81.50
32293;DHT22;43233;48.608;8.838;2022-12-04T02:37:34;1.20;81.50
32293;DHT22;43233;48.608;8.838;2022-12-04T02:40:20;1.20;81.50
32293;DHT22;43233;48.608;8.838;2022-12-04T02:43:01;1.30;81.20
32293;DHT22;43233;48.608;8.838;2022-12-04T02:45:44;1.20;81.20
32293;DHT22;43233;48.608;8.838;2022-12-04T02:48:16;1.20;81.30
32293;DHT22;43233;48.608;8.838;2022-12-04T02:50:45;1.20;81.50
32293;DHT22;43233;48.608;8.838;2022-12-04T02:53:18;1.20;81.60
32293;DHT22;43233;48.608;8.838;2022-12-04T02:55:55;1.20;81.80
32293;DHT22;43233;48.608;8.838;2022-12-04T02:58:31;1.20;82.00
32293;DHT22;43233;48.608;8.838;2022-12-04T03:01:02;1.20;81.90
32293;DHT22;43233;48.608;8.838;2022-12-04T03:04:04;1.20;82.00
32293;DHT22;43233;48.608;8.838;2022-12-04T03:06:35;1.20;81.90
32293;DHT22;43233;48.608;8.838;2022-12-04T03:11:37;1.20;82.10
32293;DHT22;43233;48.608;8.838;2022-12-04T03:14:25;1.20;81.90
32293;DHT22;43233;48.608;8.838;2022-12-04T03:16:57;1.20;81.80
32293;DHT22;43233;48.608;8.838;2022-12-04T03:19:27;1.20;81.80
32293;DHT22;43233;48.608;8.838;2022-12-04T03:21:59;1.20;81.50
32293;DHT22;43233;48.608;8.838;2022-12-04T03:24:32;1.20;81.50
32293;DHT22;43233;48.608;8.838;2022-12-04T03:30:13;1.10;81.70
32293;DHT22;43233;48.608;8.838;2022-12-04T03:35:43;1.10;81.50
32293;DHT22;43233;48.608;8.838;2022-12-04T03:38:36;1.10;82.10
32293;DHT22;43233;48.608;8.838;2022-12-04T03:44:35;1.10;81.80
32293;DHT22;43233;48.608;8.838;2022-12-04T03:47:06;1.10;81.90
32293;DHT22;43233;48.608;8.838;2022-12-04T03:52:39;1.10;81.50
32293;DHT22;43233;48.608;8.838;2022-12-04T03:57:48;1.10;81.20
32293;DHT22;43233;48.608;8.838;2022-12-04T04:00:20;1.10;81.30
32293;DHT22;43233;48.608;8.838;2022-12-04T04:03:02;1.10;81.20
32293;DHT22;43233;48.608;8.838;2022-12-04T04:05:32;1.10;81.10
32293;DHT22;43233;48.608;8.838;2022-12-04T04:08:04;1.10;81.00
32293;DHT22;43233;48.608;8.838;2022-12-04T04:10:51;1.10;81.00
32293;DHT22;43233;48.608;8.838;2022-12-04T04:13:21;1.10;81.00
32293;DHT22;43233;48.608;8.838;2022-12-04T04:16:10;1.10;81.90
32293;DHT22;43233;48.608;8.838;2022-12-04T04:18:57;1.10;81.10
32293;DHT22;43233;48.608;8.838;2022-12-04T04:21:43;1.10;81.20
32293;DHT22;43233;48.608;8.838;2022-12-04T04:24:39;1.10;81.20
32293;DHT22;43233;48.608;8.838;2022-12-04T04:27:06;1.10;81.10
32293;DHT22;43233;48.608;8.838;2022-12-04T04:29:32;1.20;81.00
32293;DHT22;43233;48.608;8.838;2022-12-04T04:32:13;1.20;80.60
32293;DHT22;43233;48.608;8.838;2022-12-04T04:34:45;1.10;80.70
32293;DHT22;43233;48.608;8.838;2022-12-04T04:37:29;1.10;80.80
32293;DHT22;43233;48.608;8.838;2022-12-04T04:40:26;1.10;80.80
32293;DHT22;43233;48.608;8.838;2022-12-04T04:43:07;1.10;80.80
32293;DHT22;43233;48.608;8.838;2022-12-04T04:45:38;1.20;80.70
32293;DHT22;43233;48.608;8.838;2022-12-04T04:48:50;1.10;81.20
32293;DHT22;43233;48.608;8.838;2022-12-04T04:50:56;1.10;80.70
32293;DHT22;43233;48.608;8.838;2022-12-04T04:53:25;1.10;80.70
32293;DHT22;43233;48.608;8.838;2022-12-04T04:55:53;1.10;80.70
32293;DHT22;43233;48.608;8.838;2022-12-04T04:58:20;1.10;80.80
32293;DHT22;43233;48.608;8.838;2022-12-04T05:01:21;1.10;80.60
32293;DHT22;43233;48.608;8.838;2022-12-04T05:03:46;1.10;80.70
32293;DHT22;43233;48.608;8.838;2022-12-04T05:06:12;1.10;80.70
32293;DHT22;43233;48.608;8.838;2022-12-04T05:08:37;1.10;80.80
32293;DHT22;43233;48.608;8.838;2022-12-04T05:11:04;1.10;80.80
32293;DHT22;43233;48.608;8.838;2022-12-04T05:13:30;1.10;80.80
32293;DHT22;43233;48.608;8.838;2022-12-04T05:16:01;1.10;80.90
32293;DHT22;43233;48.608;8.838;2022-12-04T05:18:27;1.10;80.70
32293;DHT22;43233;48.608;8.838;2022-12-04T05:20:53;1.10;80.80
32293;DHT22;43233;48.608;8.838;2022-12-04T05:23:19;1.10;80.90
32293;DHT22;43233;48.608;8.838;2022-12-04T05:25:46;1.10;80.70
32293;DHT22;43233;48.608;8.838;2022-12-04T05:28:12;1.10;80.80
32293;DHT22;43233;48.608;8.838;2022-12-04T05:30:38;1.10;81.00
32293;DHT22;43233;48.608;8.838;2022-12-04T05:33:03;1.10;81.10
32293;DHT22;43233;48.608;8.838;2022-12-04T05:35:29;1.10;81.20
32293;DHT22;43233;48.608;8.838;2022-12-04T05:37:55;1.10;81.20
32293;DHT22;43233;48.608;8.838;2022-12-04T05:40:20;1.10;81.00
32293;DHT22;43233;48.608;8.838;2022-12-04T05:42:46;1.10;81.10
32293;DHT22;43233;48.608;8.838;2022-12-04T05:45:12;1.10;81.10
32293;DHT22;43233;48.608;8.838;2022-12-04T05:47:39;1.10;81.30
32293;DHT22;43233;48.608;8.838;2022-12-04T05:50:06;1.10;81.50
32293;DHT22;43233;48.608;8.838;2022-12-04T05:52:32;1.10;81.20
32293;DHT22;43233;48.608;8.838;2022-12-04T05:54:57;1.10;81.10
32293;DHT22;43233;48.608;8.838;2022-12-04T05:57:23;1.10;81.20
32293;DHT22;43233;48.608;8.838;2022-12-04T05:59:49;1.20;81.00
32293;DHT22;43233;48.608;8.838;2022-12-04T06:02:15;1.10;80.80
32293;DHT22;43233;48.608;8.838;2022-12-04T06:04:40;1.10;80.70
32293;DHT22;43233;48.608;8.838;2022-12-04T06:07:06;1.10;80.70
32293;DHT22;43233;48.608;8.838;2022-12-04T06:09:33;1.10;80.60
32293;DHT22;43233;48.608;8.838;2022-12-04T06:11:58;1.10;80.70
32293;DHT22;43233;48.608;8.838;2022-12-04T06:14:24;1.10;80.60
32293;DHT22;43233;48.608;8.838;2022-12-04T06:16:50;1.10;80.60
32293;DHT22;43233;48.608;8.838;2022-12-04T06:19:17;1.10;80.70
32293;DHT22;43233;48.608;8.838;2022-12-04T06:21:46;1.10;80.60
32293;DHT22;43233;48.608;8.838;2022-12-04T06:24:15;1.10;80.50
32293;DHT22;43233;48.608;8.838;2022-12-04T06:26:41;1.10;80.60
32293;DHT22;43233;48.608;8.838;2022-12-04T06:29:07;1.10;80.50
32293;DHT22;43233;48.608;8.838;2022-12-04T06:31:32;1.10;80.50
32293;DHT22;43233;48.608;8.838;2022-12-04T06:34:00;1.10;80.50
32293;DHT22;43233;48.608;8.838;2022-12-04T06:36:26;1.10;80.50
32293;DHT22;43233;48.608;8.838;2022-12-04T06:38:54;1.10;80.60
32293;DHT22;43233;48.608;8.838;2022-12-04T06:41:21;1.10;80.70
32293;DHT22;43233;48.608;8.838;2022-12-04T06:43:47;1.10;80.90
32293;DHT22;43233;48.608;8.838;2022-12-04T06:46:19;1.10;80.80
32293;DHT22;43233;48.608;8.838;2022-12-04T06:48:45;1.00;80.90
32293;DHT22;43233;48.608;8.838;2022-12-04T06:51:13;1.10;81.00
32293;DHT22;43233;48.608;8.838;2022-12-04T06:53:40;1.10;81.00
32293;DHT22;43233;48.608;8.838;2022-12-04T06:56:08;1.00;81.10
32293;DHT22;43233;48.608;8.838;2022-12-04T06:58:34;1.00;81.20
32293;DHT22;43233;48.608;8.838;2022-12-04T07:01:06;1.00;81.30
32293;DHT22;43233;48.608;8.838;2022-12-04T07:03:32;1.10;81.50
32293;DHT22;43233;48.608;8.838;2022-12-04T07:05:58;1.10;81.50
32293;DHT22;43233;48.608;8.838;2022-12-04T07:08:23;1.10;81.50
32293;DHT22;43233;48.608;8.838;2022-12-04T07:10:49;1.10;81.50
32293;DHT22;43233;48.608;8.838;2022-12-04T07:13:15;1.10;81.50
32293;DHT22;43233;48.608;8.838;2022-12-04T07:15:40;1.10;81.80
32293;DHT22;43233;48.608;8.838;2022-12-04T07:18:06;1.10;81.70
32293;DHT22;43233;48.608;8.838;2022-12-04T07:20:32;1.10;81.70
32293;DHT22;43233;48.608;8.838;2022-12-04T07:22:57;1.10;81.60
32293;DHT22;43233;48.608;8.838;2022-12-04T07:25:23;1.10;81.20
32293;DHT22;43233;48.608;8.838;2022-12-04T07:27:48;1.10;81.50
32293;DHT22;43233;48.608;8.838;2022-12-04T07:30:14;1.10;81.60
32293;DHT22;43233;48.608;8.838;2022-12-04T07:32:40;1.10;81.60
32293;DHT22;43233;48.608;8.838;2022-12-04T07:35:06;1.10;81.60
32293;DHT22;43233;48.608;8.838;2022-12-04T07:37:35;1.10;81.50
32293;DHT22;43233;48.608;8.838;2022-12-04T07:40:02;1.10;81.30
32293;DHT22;43233;48.608;8.838;2022-12-04T07:42:28;1.10;81.30
32293;DHT22;43233;48.608;8.838;2022-12-04T07:44:53;1.10;81.30
32293;DHT22;43233;48.608;8.838;2022-12-04T07:47:19;1.10;81.20
32293;DHT22;43233;48.608;8.838;2022-12-04T07:49:44;1.20;81.20
32293;DHT22;43233;48.608;8.838;2022-12-04T07:52:10;1.20;81.20
32293;DHT22;43233;48.608;8.838;2022-12-04T07:54:36;1.10;81.00
32293;DHT22;43233;48.608;8.838;2022-12-04T07:57:01;1.20;80.90
32293;DHT22;43233;48.608;8.838;2022-12-04T07:59:27;1.20;80.90
32293;DHT22;43233;48.608;8.838;2022-12-04T08:01:52;1.20;80.80
32293;DHT22;43233;48.608;8.838;2022-12-04T08:04:18;1.20;80.70
32293;DHT22;43233;48.608;8.838;2022-12-04T08:06:43;1.20;80.80
32293;DHT22;43233;48.608;8.838;2022-12-04T08:09:09;1.20;80.90
32293;DHT22;43233;48.608;8.838;2022-12-04T08:11:35;1.20;80.90
32293;DHT22;43233;48.608;8.838;2022-12-04T08:14:03;1.20;80.80
32293;DHT22;43233;48.608;8.838;2022-12-04T08:16:31;1.30;81.00
32293;DHT22;43233;48.608;8.838;2022-12-04T08:18:57;1.30;81.10
32293;DHT22;43233;48.608;8.838;2022-12-04T08:21:26;1.30;81.10
32293;DHT22;43233;48.608;8.838;2022-12-04T08:23:53;1.30;81.30
32293;DHT22;43233;48.608;8.838;2022-12-04T08:26:21;1.20;80.90
32293;DHT22;43233;48.608;8.838;2022-12-04T08:28:47;1.30;81.10
32293;DHT22;43233;48.608;8.838;2022-12-04T08:31:19;1.30;81.10
32293;DHT22;43233;48.608;8.838;2022-12-04T08:33:46;1.30;81.20
32293;DHT22;43233;48.608;8.838;2022-12-04T08:36:14;1.30;80.80
32293;DHT22;43233;48.608;8.838;2022-12-04T08:38:41;1.30;81.00
32293;DHT22;43233;48.608;8.838;2022-12-04T08:41:09;1.30;81.00
32293;DHT22;43233;48.608;8.838;2022-12-04T08:43:35;1.30;81.10
32293;DHT22;43233;48.608;8.838;2022-12-04T08:46:04;1.30;81.10
32293;DHT22;43233;48.608;8.838;2022-12-04T08:48:31;1.40;81.10
32293;DHT22;43233;48.608;8.838;2022-12-04T08:50:57;1.40;81.20
32293;DHT22;43233;48.608;8.838;2022-12-04T08:53:23;1.40;81.30
32293;DHT22;43233;48.608;8.838;2022-12-04T08:55:50;1.40;81.30
32293;DHT22;43233;48.608;8.838;2022-12-04T08:58:16;1.40;80.80
32293;DHT22;43233;48.608;8.838;2022-12-04T09:00:42;1.40;80.60
32293;DHT22;43233;48.608;8.838;2022-12-04T09:03:12;1.40;80.90
32293;DHT22;43233;48.608;8.838;2022-12-04T09:05:38;1.40;80.70
32293;DHT22;43233;48.608;8.838;2022-12-04T09:08:03;1.50;80.70
32293;DHT22;43233;48.608;8.838;2022-12-04T09:10:29;1.50;80.40
32293;DHT22;43233;48.608;8.838;2022-12-04T09:12:55;1.50;80.40
32293;DHT22;43233;48.608;8.838;2022-12-04T09:15:20;1.50;80.30
32293;DHT22;43233;48.608;8.838;2022-12-04T09:17:46;1.50;80.30
32293;DHT22;43233;48.608;8.838;2022-12-04T09:20:11;1.50;80.30
32293;DHT22;43233;48.608;8.838;2022-12-04T09:22:39;1.60;80.20
32293;DHT22;43233;48.608;8.838;2022-12-04T09:25:05;1.50;80.40
32293;DHT22;43233;48.608;8.838;2022-12-04T09:27:35;1.60;80.20
32293;DHT22;43233;48.608;8.838;2022-12-04T09:30:03;1.60;80.00
32293;DHT22;43233;48.608;8.838;2022-12-04T09:32:29;1.60;80.00
32293;DHT22;43233;48.608;8.838;2022-12-04T09:34:54;1.60;80.10
32293;DHT22;43233;48.608;8.838;2022-12-04T09:37:20;1.60;80.30
32293;DHT22;43233;48.608;8.838;2022-12-04T09:39:45;1.60;80.00
32293;DHT22;43233;48.608;8.838;2022-12-04T09:42:20;1.60;80.10
32293;DHT22;43233;48.608;8.838;2022-12-04T09:47:30;1.70;80.10
32293;DHT22;43233;48.608;8.838;2022-12-04T09:49:59;1.70;80.30
32293;DHT22;43233;48.608;8.838;2022-12-04T09:55:28;1.70;80.60
32293;DHT22;43233;48.608;8.838;2022-12-04T09:57:57;1.80;80.80
32293;DHT22;43233;48.608;8.838;2022-12-04T10:00:27;1.70;80.80
32293;DHT22;43233;48.608;8.838;2022-12-04T10:03:05;1.70;81.20
32293;DHT22;43233;48.608;8.838;2022-12-04T10:10:40;1.80;81.20
32293;DHT22;43233;48.608;8.838;2022-12-04T10:18:49;1.80;81.60
32293;DHT22;43233;48.608;8.838;2022-12-04T10:23:49;1.80;81.30
32293;DHT22;43233;48.608;8.838;2022-12-04T10:26:21;1.80;81.30
32293;DHT22;43233;48.608;8.838;2022-12-04T10:28:57;1.80;81.20
32293;DHT22;43233;48.608;8.838;2022-12-04T10:31:25;1.90;81.40
32293;DHT22;43233;48.608;8.838;2022-12-04T10:34:04;1.90;81.40
32293;DHT22;43233;48.608;8.838;2022-12-04T10:36:33;1.90;81.10
32293;DHT22;43233;48.608;8.838;2022-12-04T10:44:03;1.90;81.40
32293;DHT22;43233;48.608;8.838;2022-12-04T10:46:33;1.90;81.20
32293;DHT22;43233;48.608;8.838;2022-12-04T10:51:38;1.90;80.50
32293;DHT22;43233;48.608;8.838;2022-12-04T10:54:36;1.90;80.50
32293;DHT22;43233;48.608;8.838;2022-12-04T10:57:09;1.80;80.70
32293;DHT22;43233;48.608;8.838;2022-12-04T10:59:39;1.90;81.20
32293;DHT22;43233;48.608;8.838;2022-12-04T11:04:55;1.90;81.50
32293;DHT22;43233;48.608;8.838;2022-12-04T11:07:26;1.90;81.50
32293;DHT22;43233;48.608;8.838;2022-12-04T11:13:05;1.90;81.20
32293;DHT22;43233;48.608;8.838;2022-12-04T11:15:34;1.90;81.30
32293;DHT22;43233;48.608;8.838;2022-12-04T11:18:16;1.90;81.20
32293;DHT22;43233;48.608;8.838;2022-12-04T11:20:50;1.90;81.10
32293;DHT22;43233;48.608;8.838;2022-12-04T11:23:16;1.90;81.10
32293;DHT22;43233;48.608;8.838;2022-12-04T11:25:49;1.90;81.10
32293;DHT22;43233;48.608;8.838;2022-12-04T11:28:34;1.90;81.30
32293;DHT22;43233;48.608;8.838;2022-12-04T11:31:03;1.90;81.30
32293;DHT22;43233;48.608;8.838;2022-12-04T11:38:48;1.90;81.40
32293;DHT22;43233;48.608;8.838;2022-12-04T11:41:26;2.00;81.80
32293;DHT22;43233;48.608;8.838;2022-12-04T11:43:53;1.90;82.00
32293;DHT22;43233;48.608;8.838;2022-12-04T11:46:22;1.90;82.20
32293;DHT22;43233;48.608;8.838;2022-12-04T11:48:49;2.00;82.30
32293;DHT22;43233;48.608;8.838;2022-12-04T11:54:25;2.00;82.40
32293;DHT22;43233;48.608;8.838;2022-12-04T12:13:53;2.10;82.20
32293;DHT22;43233;48.608;8.838;2022-12-04T12:16:27;2.10;82.20
32293;DHT22;43233;48.608;8.838;2022-12-04T12:19:00;2.10;82.10
32293;DHT22;43233;48.608;8.838;2022-12-04T12:24:29;2.10;82.70
32293;DHT22;43233;48.608;8.838;2022-12-04T12:30:20;2.10;82.90
32293;DHT22;43233;48.608;8.838;2022-12-04T12:33:01;2.10;82.90
32293;DHT22;43233;48.608;8.838;2022-12-04T12:39:00;2.10;82.80
32293;DHT22;43233;48.608;8.838;2022-12-04T12:41:25;2.10;82.70
32293;DHT22;43233;48.608;8.838;2022-12-04T12:44:11;2.20;82.50
32293;DHT22;43233;48.608;8.838;2022-12-04T12:46:51;2.20;82.50
32293;DHT22;43233;48.608;8.838;2022-12-04T12:49:26;2.20;82.70
32293;DHT22;43233;48.608;8.838;2022-12-04T12:52:11;2.20;82.80
32293;DHT22;43233;48.608;8.838;2022-12-04T12:55:00;2.20;82.50
32293;DHT22;43233;48.608;8.838;2022-12-04T13:00:25;2.20;82.50
32293;DHT22;43233;48.608;8.838;2022-12-04T13:03:05;2.20;82.60
32293;DHT22;43233;48.608;8.838;2022-12-04T13:05:39;2.20;82.40
32293;DHT22;43233;48.608;8.838;2022-12-04T13:13:26;2.30;82.40
32293;DHT22;43233;48.608;8.838;2022-12-04T13:16:06;2.20;82.10
32293;DHT22;43233;48.608;8.838;2022-12-04T13:18:52;2.20;82.10
32293;DHT22;43233;48.608;8.838;2022-12-04T13:21:34;2.20;81.90
32293;DHT22;43233;48.608;8.838;2022-12-04T13:27:22;2.20;82.30
32293;DHT22;43233;48.608;8.838;2022-12-04T13:35:46;2.30;82.30
32293;DHT22;43233;48.608;8.838;2022-12-04T13:38:28;2.20;81.70
32293;DHT22;43233;48.608;8.838;2022-12-04T13:41:02;2.20;81.30
32293;DHT22;43233;48.608;8.838;2022-12-04T13:46:28;1.90;81.30
32293;DHT22;43233;48.608;8.838;2022-12-04T13:49:19;1.70;83.60
32293;DHT22;43233;48.608;8.838;2022-12-04T13:51:48;1.70;84.50
32293;DHT22;43233;48.608;8.838;2022-12-04T13:56:52;1.90;84.20
32293;DHT22;43233;48.608;8.838;2022-12-04T14:02:15;1.90;83.70
32293;DHT22;43233;48.608;8.838;2022-12-04T14:05:11;2.00;83.60
32293;DHT22;43233;48.608;8.838;2022-12-04T14:10:33;2.10;83.70
32293;DHT22;43233;48.608;8.838;2022-12-04T14:13:21;2.10;83.40
32293;DHT22;43233;48.608;8.838;2022-12-04T14:15:45;2.10;83.30
32293;DHT22;43233;48.608;8.838;2022-12-04T14:20:39;2.10;83.20
32293;DHT22;43233;48.608;8.838;2022-12-04T14:26:00;2.10;83.80
32293;DHT22;43233;48.608;8.838;2022-12-04T14:31:24;2.10;83.30
32293;DHT22;43233;48.608;8.838;2022-12-04T14:34:00;2.10;83.50
32293;DHT22;43233;48.608;8.838;2022-12-04T14:36:35;2.10;83.50
32293;DHT22;43233;48.608;8.838;2022-12-04T14:39:10;2.10;83.40
32293;DHT22;43233;48.608;8.838;2022-12-04T14:41:37;2.10;83.50
32293;DHT22;43233;48.608;8.838;2022-12-04T14:44:03;2.00;83.40
32293;DHT22;43233;48.608;8.838;2022-12-04T14:49:13;2.00;84.60
32293;DHT22;43233;48.608;8.838;2022-12-04T14:59:48;2.10;83.90
32293;DHT22;43233;48.608;8.838;2022-12-04T15:02:18;2.10;83.90
32293;DHT22;43233;48.608;8.838;2022-12-04T15:04:46;2.10;83.90
32293;DHT22;43233;48.608;8.838;2022-12-04T15:07:44;2.20;83.80
32293;DHT22;43233;48.608;8.838;2022-12-04T15:10:22;2.20;83.50
32293;DHT22;43233;48.608;8.838;2022-12-04T15:13:07;2.20;83.50
32293;DHT22;43233;48.608;8.838;2022-12-04T15:15:32;2.20;83.50
32293;DHT22;43233;48.608;8.838;2022-12-04T15:18:15;2.20;83.50
32293;DHT22;43233;48.608;8.838;2022-12-04T15:23:15;2.20;83.40
32293;DHT22;43233;48.608;8.838;2022-12-04T15:25:55;2.20;83.50
32293;DHT22;43233;48.608;8.838;2022-12-04T15:28:26;2.20;83.20
32293;DHT22;43233;48.608;8.838;2022-12-04T15:30:54;2.20;83.40
32293;DHT22;43233;48.608;8.838;2022-12-04T15:33:23;2.20;83.40
32293;DHT22;43233;48.608;8.838;2022-12-04T15:35:58;2.20;83.30
32293;DHT22;43233;48.608;8.838;2022-12-04T15:38:25;2.10;83.50
32293;DHT22;43233;48.608;8.838;2022-12-04T15:40:56;2.10;83.50
32293;DHT22;43233;48.608;8.838;2022-12-04T15:43:30;2.10;83.60
32293;DHT22;43233;48.608;8.838;2022-12-04T15:45:57;2.10;83.80
32293;DHT22;43233;48.608;8.838;2022-12-04T15:48:24;2.10;84.00
32293;DHT22;43233;48.608;8.838;2022-12-04T15:51:02;2.10;84.00
32293;DHT22;43233;48.608;8.838;2022-12-04T15:53:35;2.10;84.70
32293;DHT22;43233;48.608;8.838;2022-12-04T15:56:07;2.10;83.80
32293;DHT22;43233;48.608;8.838;2022-12-04T15:58:38;2.10;83.80
32293;DHT22;43233;48.608;8.838;2022-12-04T16:01:06;2.10;83.80
32293;DHT22;43233;48.608;8.838;2022-12-04T16:03:45;2.10;83.70
32293;DHT22;43233;48.608;8.838;2022-12-04T16:06:29;2.10;83.80
32293;DHT22;43233;48.608;8.838;2022-12-04T16:08:57;2.10;83.90
32293;DHT22;43233;48.608;8.838;2022-12-04T16:11:27;2.10;84.10
32293;DHT22;43233;48.608;8.838;2022-12-04T16:16:35;2.10;84.20
32293;DHT22;43233;48.608;8.838;2022-12-04T16:19:13;2.10;84.20
32293;DHT22;43233;48.608;8.838;2022-12-04T16:21:39;2.10;84.30
32293;DHT22;43233;48.608;8.838;2022-12-04T16:24:06;2.10;84.10
32293;DHT22;43233;48.608;8.838;2022-12-04T16:26:32;2.10;84.10
32293;DHT22;43233;48.608;8.838;2022-12-04T16:28:58;2.20;84.00
32293;DHT22;43233;48.608;8.838;2022-12-04T16:31:24;2.10;83.90
32293;DHT22;43233;48.608;8.838;2022-12-04T16:33:50;2.10;83.90
32293;DHT22;43233;48.608;8.838;2022-12-04T16:36:17;2.10;84.20
32293;DHT22;43233;48.608;8.838;2022-12-04T16:38:43;2.00;84.20
32293;DHT22;43233;48.608;8.838;2022-12-04T16:41:17;2.00;84.30
32293;DHT22;43233;48.608;8.838;2022-12-04T16:43:43;2.00;84.30
32293;DHT22;43233;48.608;8.838;2022-12-04T16:46:13;2.00;84.30
32293;DHT22;43233;48.608;8.838;2022-12-04T16:48:43;2.00;84.50
32293;DHT22;43233;48.608;8.838;2022-12-04T16:51:23;2.00;84.50
32293;DHT22;43233;48.608;8.838;2022-12-04T16:53:50;2.00;85.50
32293;DHT22;43233;48.608;8.838;2022-12-04T16:56:17;2.00;90.90
32293;DHT22;43233;48.608;8.838;2022-12-04T16:58:42;2.00;84.70
32293;DHT22;43233;48.608;8.838;2022-12-04T17:01:25;2.00;84.60
32293;DHT22;43233;48.608;8.838;2022-12-04T17:03:52;2.00;84.70
32293;DHT22;43233;48.608;8.838;2022-12-04T17:06:18;2.00;84.70
32293;DHT22;43233;48.608;8.838;2022-12-04T17:08:44;2.00;84.80
32293;DHT22;43233;48.608;8.838;2022-12-04T17:11:14;2.00;84.70
32293;DHT22;43233;48.608;8.838;2022-12-04T17:13:41;2.00;86.00
32293;DHT22;43233;48.608;8.838;2022-12-04T17:16:07;2.00;87.00
32293;DHT22;43233;48.608;8.838;2022-12-04T17:18:33;2.00;90.30
32293;DHT22;43233;48.608;8.838;2022-12-04T17:20:58;2.00;91.50
32293;DHT22;43233;48.608;8.838;2022-12-04T17:23:24;2.00;91.90
32293;DHT22;43233;48.608;8.838;2022-12-04T17:25:51;2.00;84.60
32293;DHT22;43233;48.608;8.838;2022-12-04T17:28:17;2.00;85.30
32293;DHT22;43233;48.608;8.838;2022-12-04T17:30:45;2.00;92.20
32293;DHT22;43233;48.608;8.838;2022-12-04T17:33:11;2.00;90.70
32293;DHT22;43233;48.608;8.838;2022-12-04T17:35:40;2.00;88.40
32293;DHT22;43233;48.608;8.838;2022-12-04T17:38:06;2.00;86.80
32293;DHT22;43233;48.608;8.838;2022-12-04T17:40:32;2.10;85.90
32293;DHT22;43233;48.608;8.838;2022-12-04T17:42:58;2.10;85.80
32293;DHT22;43233;48.608;8.838;2022-12-04T17:45:23;2.10;85.50
32293;DHT22;43233;48.608;8.838;2022-12-04T17:47:49;2.00;85.20
32293;DHT22;43233;48.608;8.838;2022-12-04T17:50:15;1.90;84.90
32293;DHT22;43233;48.608;8.838;2022-12-04T17:52:40;1.90;84.30
32293;DHT22;43233;48.608;8.838;2022-12-04T17:55:06;1.90;83.80
32293;DHT22;43233;48.608;8.838;2022-12-04T17:57:32;1.90;84.00
32293;DHT22;43233;48.608;8.838;2022-12-04T17:59:57;2.00;84.10
32293;DHT22;43233;48.608;8.838;2022-12-04T18:02:23;2.00;84.30
32293;DHT22;43233;48.608;8.838;2022-12-04T18:04:48;2.00;84.70
32293;DHT22;43233;48.608;8.838;2022-12-04T18:07:14;2.00;85.50
32293;DHT22;43233;48.608;8.838;2022-12-04T18:09:40;2.00;87.40
32293;DHT22;43233;48.608;8.838;2022-12-04T18:12:05;2.00;89.10
32293;DHT22;43233;48.608;8.838;2022-12-04T18:14:31;2.00;92.60
32293;DHT22;43233;48.608;8.838;2022-12-04T18:16:58;2.00;83.90
32293;DHT22;43233;48.608;8.838;2022-12-04T18:19:27;2.00;84.10
32293;DHT22;43233;48.608;8.838;2022-12-04T18:21:53;2.10;84.20
32293;DHT22;43233;48.608;8.838;2022-12-04T18:24:20;2.00;84.00
32293;DHT22;43233;48.608;8.838;2022-12-04T18:26:47;2.00;84.00
32293;DHT22;43233;48.608;8.838;2022-12-04T18:29:18;2.10;84.10
32293;DHT22;43233;48.608;8.838;2022-12-04T18:31:44;2.10;83.80
32293;DHT22;43233;48.608;8.838;2022-12-04T18:34:11;2.00;83.70